Time,TemperatureF,DewpointF,PressureIn,WindDirection,WindDirectionDegrees,WindSpeedMPH,WindSpeedGustMPH,Humidity,HourlyPrecipIn,Conditions,Clouds,dailyrainin,SolarRadiationWatts/m^2,SoftwareType,DateUTC
2013-04-01 00:02:00,69.1,66.0,30.06,South,190,0.0,-999.0,90,-99.99,,,0.00,0,weatherlink.com 1.10,2013-04-01 04:02:00,
2013-04-01 00:16:00,69.2,66.0,30.05,South,184,0.0,-999.0,90,-99.99,,,0.00,0,weatherlink.com 1.10,2013-04-01 04:16:00,
2013-04-01 00:32:00,69.1,66.0,30.05,SSE,159,0.0,-999.0,90,-99.99,,,0.00,0,weatherlink.com 1.10,2013-04-01 04:32:00,
2013-04-01 00:47:00,68.8,66.0,30.05,SSE,157,0.0,-999.0,90,-99.99,,,0.00,0,weatherlink.com 1.10,2013-04-01 04:47:00,
2013-04-01 01:17:00,68.1,66.0,30.04,SSE,157,0.0,-999.0,92,-99.99,,,0.00,0,weatherlink.com 1.10,2013-04-01 05:17:00,
2013-04-01 01:32:00,67.9,66.0,30.03,SSE,157,0.0,-999.0,92,-99.99,,,0.00,0,weatherlink.com 1.10,2013-04-01 05:32:00,
2013-04-01 01:47:00,67.6,66.0,30.03,SSE,157,0.0,-999.0,93,-99.99,,,0.00,0,weatherlink.com 1.10,2013-04-01 05:47:00,
2013-04-01 02:02:00,67.5,66.0,30.02,SSE,157,0.0,-999.0,93,-99.99,,,0.00,0,weatherlink.com 1.10,2013-04-01 06:02:00,
2013-04-01 02:17:00,67.4,66.0,30.02,SSE,157,0.0,-999.0,94,-99.99,,,0.00,0,weatherlink.com 1.10,2013-04-01 06:17:00,
2013-04-01 02:32:00,67.4,66.0,30.01,SSE,157,0.0,-999.0,94,-99.99,,,0.00,0,weatherlink.com 1.10,2013-04-01 06:32:00,
2013-04-01 02:47:00,67.8,66.0,30.01,SSE,155,0.0,-999.0,95,-99.99,,,0.00,0,weatherlink.com 1.10,2013-04-01 06:47:00,
2013-04-01 03:02:00,67.9,67.0,30.01,South,184,0.0,-999.0,95,-99.99,,,0.00,0,weatherlink.com 1.10,2013-04-01 07:02:00,
2013-04-01 03:17:00,67.7,66.0,30.00,South,184,0.0,-999.0,95,-99.99,,,0.00,0,weatherlink.com 1.10,2013-04-01 07:17:00,
2013-04-01 03:32:00,67.5,66.0,30.01,South,184,0.0,-999.0,95,-99.99,,,0.00,0,weatherlink.com 1.10,2013-04-01 07:32:00,
2013-04-01 03:47:00,67.3,66.0,30.01,South,184,0.0,-999.0,95,-99.99,,,0.00,0,weatherlink.com 1.10,2013-04-01 07:47:00,
2013-04-01 04:02:00,67.2,66.0,30.01,South,184,0.0,-999.0,95,-99.99,,,0.00,0,weatherlink.com 1.10,2013-04-01 08:02:00,
2013-04-01 04:17:00,67.1,66.0,30.00,South,184,0.0,-999.0,95,-99.99,,,0.00,0,weatherlink.com 1.10,2013-04-01 08:17:00,
2013-04-01 04:32:00,66.9,66.0,30.00,South,184,0.0,-999.0,95,-99.99,,,0.00,0,weatherlink.com 1.10,2013-04-01 08:32:00,
2013-04-01 04:47:00,67.1,66.0,30.00,South,184,0.0,-999.0,96,-99.99,,,0.00,0,weatherlink.com 1.10,2013-04-01 08:47:00,
2013-04-01 05:02:00,66.8,65.0,30.00,South,184,0.0,-999.0,95,-99.99,,,0.00,0,weatherlink.com 1.10,2013-04-01 09:02:00,
2013-04-01 05:17:00,66.7,65.0,30.00,South,184,0.0,-999.0,95,-99.99,,,0.00,0,weatherlink.com 1.10,2013-04-01 09:17:00,
2013-04-01 05:32:00,66.3,65.0,30.00,South,184,0.0,-999.0,95,-99.99,,,0.00,0,weatherlink.com 1.10,2013-04-01 09:32:00,
2013-04-01 05:47:00,65.9,65.0,30.00,South,184,0.0,-999.0,95,-99.99,,,0.00,0,weatherlink.com 1.10,2013-04-01 09:47:00,
2013-04-01 06:17:00,65.3,64.0,30.00,South,184,0.0,-999.0,96,-99.99,,,0.00,0,weatherlink.com 1.10,2013-04-01 10:17:00,
2013-04-01 06:32:00,65.3,64.0,30.00,South,184,0.0,-999.0,96,-99.99,,,0.00,0,weatherlink.com 1.10,2013-04-01 10:32:00,
2013-04-01 06:47:00,65.4,64.0,30.00,South,184,0.0,-999.0,96,-99.99,,,0.00,0,weatherlink.com 1.10,2013-04-01 10:47:00,
2013-04-01 07:02:00,65.9,65.0,30.01,South,184,0.0,-999.0,97,-99.99,,,0.00,0,weatherlink.com 1.10,2013-04-01 11:02:00,
2013-04-01 07:17:00,66.8,66.0,30.02,South,184,0.0,-999.0,97,-99.99,,,0.00,0,weatherlink.com 1.10,2013-04-01 11:17:00,
2013-04-01 07:32:00,67.1,66.0,30.03,South,184,0.0,-999.0,97,-99.99,,,0.00,14,weatherlink.com 1.10,2013-04-01 11:32:00,
2013-04-01 07:47:00,67.2,66.0,30.03,South,184,0.0,-999.0,97,-99.99,,,0.00,49,weatherlink.com 1.10,2013-04-01 11:47:00,
2013-04-01 08:02:00,68.1,67.0,30.04,South,184,0.0,-999.0,97,-99.99,,,0.00,83,weatherlink.com 1.10,2013-04-01 12:02:00,
2013-04-01 08:17:00,68.8,68.0,30.04,South,184,0.0,-999.0,97,-99.99,,,0.00,81,weatherlink.com 1.10,2013-04-01 12:17:00,
2013-04-01 08:32:00,69.7,69.0,30.04,SSW,197,0.0,-999.0,97,-99.99,,,0.00,114,weatherlink.com 1.10,2013-04-01 12:32:00,
2013-04-01 08:47:00,70.9,70.0,30.04,SSW,198,0.0,-999.0,97,-99.99,,,0.00,244,weatherlink.com 1.10,2013-04-01 12:47:00,
2013-04-01 09:02:00,71.9,71.0,30.05,SSW,192,0.0,-999.0,97,-99.99,,,0.00,269,weatherlink.com 1.10,2013-04-01 13:02:00,
2013-04-01 09:17:00,72.2,71.0,30.05,SW,215,0.0,-999.0,96,-99.99,,,0.00,336,weatherlink.com 1.10,2013-04-01 13:17:00,
2013-04-01 09:32:00,73.2,71.0,30.06,SSW,207,0.0,-999.0,94,-99.99,,,0.00,341,weatherlink.com 1.10,2013-04-01 13:32:00,
2013-04-01 09:47:00,74.3,71.0,30.06,South,183,1.0,-999.0,90,-99.99,,,0.00,302,weatherlink.com 1.10,2013-04-01 13:47:00,
2013-04-01 10:02:00,74.8,71.0,30.07,South,187,0.0,-999.0,88,-99.99,,,0.00,323,weatherlink.com 1.10,2013-04-01 14:02:00,
2013-04-01 10:17:00,76.5,72.0,30.07,SSW,197,0.0,-999.0,85,-99.99,,,0.00,548,weatherlink.com 1.10,2013-04-01 14:17:00,
2013-04-01 10:32:00,77.8,72.0,30.07,SW,217,3.0,-999.0,82,-99.99,,,0.00,420,weatherlink.com 1.10,2013-04-01 14:32:00,
2013-04-01 10:47:00,77.7,71.0,30.07,SE,138,0.0,-999.0,81,-99.99,,,0.00,466,weatherlink.com 1.10,2013-04-01 14:47:00,
2013-04-01 11:02:00,79.1,72.0,30.07,WSW,241,0.0,-999.0,79,-99.99,,,0.00,710,weatherlink.com 1.10,2013-04-01 15:02:00,
2013-04-01 11:17:00,79.5,72.0,30.07,SSW,213,0.0,-999.0,78,-99.99,,,0.00,642,weatherlink.com 1.10,2013-04-01 15:17:00,
2013-04-01 11:32:00,79.5,72.0,30.07,SW,232,0.0,-999.0,77,-99.99,,,0.00,756,weatherlink.com 1.10,2013-04-01 15:32:00,
2013-04-01 11:47:00,79.6,72.0,30.07,SE,130,0.0,-999.0,77,-99.99,,,0.00,809,weatherlink.com 1.10,2013-04-01 15:47:00,
2013-04-01 12:02:00,80.1,72.0,30.07,SW,236,5.0,-999.0,76,-99.99,,,0.00,847,weatherlink.com 1.10,2013-04-01 16:02:00,
2013-04-01 12:17:00,81.3,72.0,30.07,SW,218,0.0,-999.0,74,-99.99,,,0.00,949,weatherlink.com 1.10,2013-04-01 16:17:00,
2013-04-01 12:32:00,81.6,72.0,30.07,SSW,192,0.0,-999.0,73,-99.99,,,0.00,865,weatherlink.com 1.10,2013-04-01 16:32:00,
2013-04-01 12:47:00,81.1,72.0,30.07,SW,218,0.0,-999.0,73,-99.99,,,0.00,490,weatherlink.com 1.10,2013-04-01 16:47:00,
2013-04-01 13:02:00,80.8,72.0,30.07,South,172,0.0,-999.0,75,-99.99,,,0.00,436,weatherlink.com 1.10,2013-04-01 17:02:00,
2013-04-01 13:17:00,80.4,71.0,30.07,WSW,243,0.0,-999.0,74,-99.99,,,0.00,628,weatherlink.com 1.10,2013-04-01 17:17:00,
2013-04-01 13:32:00,81.4,72.0,30.06,WSW,240,6.0,-999.0,73,-99.99,,,0.00,967,weatherlink.com 1.10,2013-04-01 17:32:00,
2013-04-01 13:47:00,81.3,72.0,30.06,WSW,238,3.0,-999.0,74,-99.99,,,0.00,536,weatherlink.com 1.10,2013-04-01 17:47:00,
2013-04-01 14:02:00,81.6,73.0,30.05,WSW,239,3.0,-999.0,74,-99.99,,,0.00,967,weatherlink.com 1.10,2013-04-01 18:02:00,
2013-04-01 14:17:00,82.2,73.0,30.04,WSW,239,2.0,-999.0,74,-99.99,,,0.00,872,weatherlink.com 1.10,2013-04-01 18:17:00,
2013-04-01 14:32:00,81.2,73.0,30.04,WSW,244,1.0,-999.0,75,-99.99,,,0.00,856,weatherlink.com 1.10,2013-04-01 18:32:00,
2013-04-01 14:47:00,81.6,73.0,30.04,WSW,240,2.0,-999.0,75,-99.99,,,0.00,833,weatherlink.com 1.10,2013-04-01 18:47:00,
2013-04-01 15:02:00,80.6,73.0,30.03,SW,236,0.0,-999.0,77,-99.99,,,0.00,805,weatherlink.com 1.10,2013-04-01 19:02:00,
2013-04-01 15:17:00,80.1,72.0,30.02,SW,231,3.0,-999.0,77,-99.99,,,0.00,782,weatherlink.com 1.10,2013-04-01 19:17:00,
2013-04-01 15:32:00,80.1,73.0,30.02,SW,219,0.0,-999.0,78,-99.99,,,0.00,761,weatherlink.com 1.10,2013-04-01 19:32:00,
2013-04-01 15:47:00,80.7,73.0,30.01,SW,222,0.0,-999.0,77,-99.99,,,0.00,719,weatherlink.com 1.10,2013-04-01 19:47:00,
2013-04-01 16:02:00,81.2,73.0,30.00,SW,236,0.0,-999.0,76,-99.99,,,0.00,661,weatherlink.com 1.10,2013-04-01 20:02:00,
2013-04-01 16:17:00,81.6,73.0,29.99,SSW,210,3.0,-999.0,75,-99.99,,,0.00,642,weatherlink.com 1.10,2013-04-01 20:17:00,
2013-04-01 16:32:00,81.2,73.0,29.99,WNW,286,0.0,-999.0,75,-99.99,,,0.00,601,weatherlink.com 1.10,2013-04-01 20:32:00,
2013-04-01 16:47:00,81.1,73.0,29.99,SW,232,0.0,-999.0,76,-99.99,,,0.00,550,weatherlink.com 1.10,2013-04-01 20:47:00,
2013-04-01 17:02:00,80.4,72.0,30.00,WSW,239,0.0,-999.0,76,-99.99,,,0.00,501,weatherlink.com 1.10,2013-04-01 21:02:00,
2013-04-01 17:17:00,80.7,73.0,30.00,WNW,291,2.0,-999.0,77,-99.99,,,0.00,464,weatherlink.com 1.10,2013-04-01 21:17:00,
2013-04-01 17:32:00,80.4,73.0,29.99,West,279,0.0,-999.0,77,-99.99,,,0.00,401,weatherlink.com 1.10,2013-04-01 21:32:00,
2013-04-01 17:42:00,80.2,72.3,30.00,SW,219,1.0,1.0,77,0.00,,,0.00,367,Wunderground v.1.15,2013-04-01 21:42:00,
2013-04-01 17:48:00,80.0,73.0,30.00,WNW,284,1.0,-999.0,79,-99.99,,,0.00,338,weatherlink.com 1.10,2013-04-01 21:48:00,
2013-04-01 18:02:00,79.0,72.0,30.00,WNW,295,0.0,-999.0,79,-99.99,,,0.00,287,weatherlink.com 1.10,2013-04-01 22:02:00,
2013-04-01 18:17:00,78.5,72.0,30.01,WNW,284,0.0,-999.0,80,-99.99,,,0.00,236,weatherlink.com 1.10,2013-04-01 22:17:00,
2013-04-01 18:32:00,78.0,72.0,30.01,South,175,2.0,-999.0,81,-99.99,,,0.00,172,weatherlink.com 1.10,2013-04-01 22:32:00,
2013-04-01 18:47:00,76.4,71.0,30.01,WSW,254,0.0,-999.0,83,-99.99,,,0.00,46,weatherlink.com 1.10,2013-04-01 22:47:00,
2013-04-01 19:02:00,75.2,71.0,30.01,WNW,300,0.0,-999.0,85,-99.99,,,0.00,47,weatherlink.com 1.10,2013-04-01 23:02:00,
2013-04-01 19:17:00,74.7,70.0,30.01,WNW,290,0.0,-999.0,86,-99.99,,,0.00,44,weatherlink.com 1.10,2013-04-01 23:17:00,
2013-04-01 19:32:00,74.3,70.0,30.01,WNW,287,0.0,-999.0,87,-99.99,,,0.00,19,weatherlink.com 1.10,2013-04-01 23:32:00,
2013-04-01 19:47:00,73.7,70.0,30.02,West,275,0.0,-999.0,89,-99.99,,,0.00,5,weatherlink.com 1.10,2013-04-01 23:47:00,
2013-04-01 20:02:00,73.2,70.0,30.02,WNW,300,0.0,-999.0,90,-99.99,,,0.00,0,weatherlink.com 1.10,2013-04-02 00:02:00,
2013-04-01 20:32:00,72.4,70.0,30.02,West,271,0.0,-999.0,92,-99.99,,,0.00,0,weatherlink.com 1.10,2013-04-02 00:32:00,
2013-04-01 20:47:00,72.1,70.0,30.03,West,275,0.0,-999.0,92,-99.99,,,0.00,0,weatherlink.com 1.10,2013-04-02 00:47:00,
2013-04-01 21:02:00,72.0,70.0,30.03,WNW,288,1.0,-999.0,93,-99.99,,,0.00,0,weatherlink.com 1.10,2013-04-02 01:02:00,
2013-04-01 21:17:00,71.9,70.0,30.03,WNW,289,0.0,-999.0,93,-99.99,,,0.00,0,weatherlink.com 1.10,2013-04-02 01:17:00,
2013-04-01 21:32:00,71.8,70.0,30.04,WNW,289,0.0,-999.0,93,-99.99,,,0.00,0,weatherlink.com 1.10,2013-04-02 01:32:00,
2013-04-01 21:47:00,71.7,70.0,30.04,WNW,289,0.0,-999.0,94,-99.99,,,0.00,0,weatherlink.com 1.10,2013-04-02 01:47:00,
2013-04-01 22:02:00,71.5,70.0,30.05,WNW,286,0.0,-999.0,94,-99.99,,,0.00,0,weatherlink.com 1.10,2013-04-02 02:02:00,
2013-04-01 22:17:00,71.4,70.0,30.05,WNW,286,0.0,-999.0,94,-99.99,,,0.00,0,weatherlink.com 1.10,2013-04-02 02:17:00,
2013-04-01 22:32:00,71.2,69.0,30.05,WNW,286,0.0,-999.0,94,-99.99,,,0.00,0,weatherlink.com 1.10,2013-04-02 02:32:00,
2013-04-01 22:47:00,71.1,70.0,30.05,WNW,286,0.0,-999.0,95,-99.99,,,0.00,0,weatherlink.com 1.10,2013-04-02 02:47:00,
2013-04-01 23:02:00,71.0,70.0,30.05,WNW,286,0.0,-999.0,95,-99.99,,,0.00,0,weatherlink.com 1.10,2013-04-02 03:02:00,
2013-04-01 23:17:00,70.8,69.0,30.06,WNW,286,0.0,-999.0,95,-99.99,,,0.00,0,weatherlink.com 1.10,2013-04-02 03:17:00,
2013-04-01 23:32:00,70.6,69.0,30.05,WNW,286,0.0,-999.0,95,-99.99,,,0.00,0,weatherlink.com 1.10,2013-04-02 03:32:00,
2013-04-01 23:47:00,70.5,69.0,30.05,WNW,286,0.0,-999.0,95,-99.99,,,0.00,0,weatherlink.com 1.10,2013-04-02 03:47:00,